createdAt,value
2019-05-29T00:00:33.519Z,13.40
2019-05-29T00:01:38.247Z,13.40
2019-05-29T00:02:43.119Z,13.50
2019-05-29T00:03:48.041Z,13.40
2019-05-29T00:04:53.147Z,13.50
2019-05-29T00:05:57.835Z,13.50
2019-05-29T00:07:02.740Z,13.50
2019-05-29T00:08:08.217Z,13.50
2019-05-29T00:09:14.306Z,13.50
2019-05-29T00:10:19.316Z,13.50
2019-05-29T00:11:24.168Z,13.50
2019-05-29T00:12:28.813Z,13.50
2019-05-29T00:13:33.701Z,13.50
2019-05-29T00:14:38.465Z,13.50
2019-05-29T00:15:43.416Z,13.60
2019-05-29T00:16:48.087Z,13.60
2019-05-29T00:17:52.939Z,13.50
2019-05-29T00:18:58.384Z,13.60
2019-05-29T00:20:03.721Z,13.60
2019-05-29T00:21:08.673Z,13.60
2019-05-29T00:22:14.484Z,13.60
2019-05-29T00:23:19.692Z,13.60
2019-05-29T00:24:25.221Z,13.60
2019-05-29T00:25:30.256Z,13.60
2019-05-29T00:26:35.132Z,13.60
2019-05-29T00:27:39.886Z,13.60
2019-05-29T00:28:44.757Z,13.60
2019-05-29T00:29:49.429Z,13.60
2019-05-29T00:30:54.342Z,13.60
2019-05-29T00:31:59.168Z,13.60
2019-05-29T00:33:04.033Z,13.60
2019-05-29T00:34:08.973Z,13.60
2019-05-29T00:35:14.393Z,13.60
2019-05-29T00:36:19.192Z,13.60
2019-05-29T00:37:24.114Z,13.60
2019-05-29T00:38:28.853Z,13.60
2019-05-29T00:39:33.704Z,13.60
2019-05-29T00:40:38.408Z,13.70
2019-05-29T00:41:43.496Z,13.60
2019-05-29T00:42:48.174Z,13.70
2019-05-29T00:43:53.031Z,13.60
2019-05-29T00:44:57.715Z,13.70
2019-05-29T00:46:02.746Z,13.60
2019-05-29T00:47:07.546Z,13.60
2019-05-29T00:48:12.401Z,13.60
2019-05-29T00:49:18.058Z,13.60
2019-05-29T00:50:23.246Z,13.60
2019-05-29T00:51:28.193Z,13.60
2019-05-29T00:52:33.078Z,13.60
2019-05-29T00:53:37.980Z,13.70
2019-05-29T00:54:43.212Z,13.70
2019-05-29T00:55:47.914Z,13.60
2019-05-29T00:56:52.775Z,13.60
2019-05-29T00:57:57.442Z,13.70
2019-05-29T00:59:02.325Z,13.70
2019-05-29T01:00:08.940Z,13.70
2019-05-29T01:01:14.009Z,13.70
2019-05-29T01:02:19.800Z,13.70
2019-05-29T01:03:24.755Z,13.70
2019-05-29T01:04:29.454Z,13.70
2019-05-29T01:05:34.337Z,13.70
2019-05-29T01:06:38.993Z,13.70
2019-05-29T01:07:43.925Z,13.70
2019-05-29T01:08:48.592Z,13.70
2019-05-29T01:09:53.456Z,13.70
2019-05-29T01:10:58.208Z,13.70
2019-05-29T01:12:03.093Z,13.70
2019-05-29T01:13:07.852Z,13.70
2019-05-29T01:14:13.113Z,13.70
2019-05-29T01:15:19.464Z,13.70
2019-05-29T01:16:24.436Z,13.70
2019-05-29T01:17:29.104Z,13.70
2019-05-29T01:18:34.106Z,13.80
2019-05-29T01:19:38.912Z,13.70
2019-05-29T01:20:43.757Z,13.80
2019-05-29T01:21:48.553Z,13.80
2019-05-29T01:22:53.485Z,13.80
2019-05-29T01:23:58.248Z,13.80
2019-05-29T01:25:03.346Z,13.80
2019-05-29T01:26:08.401Z,13.80
2019-05-29T01:27:13.271Z,13.80
2019-05-29T01:28:18.958Z,13.80
2019-05-29T01:29:24.104Z,13.70
2019-05-29T01:30:29.031Z,13.70
2019-05-29T01:31:34.086Z,13.70
2019-05-29T01:32:38.774Z,13.70
2019-05-29T01:33:43.640Z,13.70
2019-05-29T01:34:48.548Z,13.70
2019-05-29T01:35:53.411Z,13.70
2019-05-29T01:36:58.068Z,13.70
2019-05-29T01:38:02.920Z,13.70
2019-05-29T01:39:08.050Z,13.70
2019-05-29T01:40:20.138Z,13.70
2019-05-29T01:41:19.948Z,13.70
2019-05-29T01:42:24.790Z,13.70
2019-05-29T01:43:29.541Z,13.70
2019-05-29T01:44:34.603Z,13.70
2019-05-29T01:45:39.293Z,13.70
2019-05-29T01:46:44.172Z,13.70
2019-05-29T01:47:48.868Z,13.70
2019-05-29T01:48:53.826Z,13.70
2019-05-29T01:49:58.779Z,13.70
2019-05-29T01:51:03.639Z,13.70
2019-05-29T01:52:08.300Z,13.70
2019-05-29T01:53:13.265Z,13.70
2019-05-29T01:54:17.929Z,13.70
2019-05-29T01:55:23.815Z,13.70
2019-05-29T01:56:28.759Z,13.70
2019-05-29T01:57:33.606Z,13.70
2019-05-29T01:58:38.338Z,13.70
2019-05-29T01:59:43.262Z,13.70
2019-05-29T02:00:48.043Z,13.70
2019-05-29T02:01:52.944Z,13.70
2019-05-29T02:02:57.689Z,13.70
2019-05-29T02:04:02.738Z,13.70
2019-05-29T02:05:07.996Z,13.70
2019-05-29T02:06:12.891Z,13.70
2019-05-29T02:07:17.959Z,13.70
2019-05-29T02:08:24.187Z,13.70
2019-05-29T02:09:29.115Z,13.80
2019-05-29T02:10:34.032Z,13.80
2019-05-29T02:11:38.875Z,13.80
2019-05-29T02:12:44.001Z,13.80
2019-05-29T02:13:48.814Z,13.80
2019-05-29T02:14:53.923Z,13.80
2019-05-29T02:15:58.584Z,13.80
2019-05-29T02:17:03.538Z,13.80
2019-05-29T02:18:08.386Z,13.80
2019-05-29T02:19:13.252Z,13.80
2019-05-29T02:20:19.032Z,13.80
2019-05-29T02:21:24.384Z,13.80
2019-05-29T02:22:29.052Z,13.80
2019-05-29T02:23:34.033Z,13.80
2019-05-29T02:24:38.767Z,13.80
2019-05-29T02:25:43.640Z,13.80
2019-05-29T02:26:48.301Z,13.80
2019-05-29T02:27:53.234Z,13.70
2019-05-29T02:28:57.916Z,13.70
2019-05-29T02:30:02.846Z,13.80
2019-05-29T02:31:07.572Z,13.70
2019-05-29T02:32:12.432Z,13.80
2019-05-29T02:33:17.574Z,13.80
2019-05-29T02:34:24.885Z,13.80
2019-05-29T02:35:29.736Z,13.80
2019-05-29T02:36:34.642Z,13.80
2019-05-29T02:37:39.344Z,13.80
2019-05-29T02:38:44.275Z,13.80
2019-05-29T02:39:48.986Z,13.80
2019-05-29T02:40:53.920Z,13.80
2019-05-29T02:41:58.727Z,13.80
2019-05-29T02:43:03.581Z,13.80
2019-05-29T02:44:08.417Z,13.80
2019-05-29T02:45:13.802Z,13.80
2019-05-29T02:46:19.451Z,13.80
2019-05-29T02:47:26.032Z,13.80
2019-05-29T02:48:31.795Z,13.80
2019-05-29T02:49:37.082Z,13.80
2019-05-29T02:50:41.916Z,13.80
2019-05-29T02:51:46.997Z,13.80
2019-05-29T02:52:51.652Z,13.90
2019-05-29T02:53:56.595Z,13.90
2019-05-29T02:55:01.490Z,13.90
2019-05-29T02:56:06.364Z,13.90
2019-05-29T02:57:11.034Z,13.90
2019-05-29T02:58:15.935Z,13.90
2019-05-29T02:59:21.099Z,13.90
2019-05-29T03:00:56.921Z,13.90
2019-05-29T03:02:01.615Z,13.90
2019-05-29T03:03:06.547Z,13.90
2019-05-29T03:04:11.506Z,13.90
2019-05-29T03:05:16.388Z,14.00
2019-05-29T03:06:22.313Z,14.00
2019-05-29T03:07:28.554Z,14.00
2019-05-29T03:08:34.378Z,14.00
2019-05-29T03:09:40.077Z,14.00
2019-05-29T03:10:44.917Z,14.00
2019-05-29T03:11:49.788Z,14.00
2019-05-29T03:12:54.533Z,14.00
2019-05-29T03:13:59.558Z,14.00
2019-05-29T03:15:06.323Z,14.00
2019-05-29T03:16:12.840Z,14.00
2019-05-29T03:17:17.815Z,14.00
2019-05-29T03:18:23.961Z,14.00
2019-05-29T03:19:30.343Z,14.00
2019-05-29T03:20:35.952Z,14.00
2019-05-29T03:21:40.775Z,14.00
2019-05-29T03:22:45.632Z,14.00
2019-05-29T03:23:50.338Z,14.00
2019-05-29T03:24:55.552Z,14.00
2019-05-29T03:26:00.378Z,14.00
2019-05-29T03:27:05.640Z,14.00
2019-05-29T03:28:10.634Z,14.00
2019-05-29T03:29:15.533Z,14.00
2019-05-29T03:30:20.273Z,14.00
2019-05-29T03:31:30.072Z,14.00
2019-05-29T03:32:39.278Z,14.00
2019-05-29T03:33:47.813Z,14.00
2019-05-29T03:34:47.042Z,14.00
2019-05-29T03:35:51.373Z,14.00
2019-05-29T03:36:56.036Z,14.00
2019-05-29T03:38:01.099Z,14.00
2019-05-29T03:39:07.304Z,13.90
2019-05-29T03:40:12.307Z,14.00
2019-05-29T03:41:16.973Z,13.90
2019-05-29T03:42:21.847Z,13.90
2019-05-29T03:43:28.419Z,13.90
2019-05-29T03:44:35.332Z,13.90
2019-05-29T03:45:40.012Z,13.90
2019-05-29T03:46:46.111Z,13.90
2019-05-29T03:47:51.053Z,13.90
2019-05-29T03:48:56.036Z,13.90
2019-05-29T03:50:00.845Z,13.90
2019-05-29T03:51:05.681Z,13.90
2019-05-29T03:52:10.478Z,13.90
2019-05-29T03:53:15.329Z,13.90
2019-05-29T03:54:20.000Z,13.90
2019-05-29T03:55:24.884Z,13.90
2019-05-29T03:56:30.628Z,13.90
2019-05-29T03:57:35.926Z,13.90
2019-05-29T03:58:41.395Z,13.90
2019-05-29T03:59:46.270Z,13.90
2019-05-29T04:00:51.069Z,14.00
2019-05-29T04:01:56.056Z,14.00
2019-05-29T04:03:00.812Z,13.90
2019-05-29T04:04:05.791Z,14.00
2019-05-29T04:05:11.922Z,13.90
2019-05-29T04:06:16.969Z,14.00
2019-05-29T04:07:21.712Z,13.90
2019-05-29T04:08:27.418Z,13.90
2019-05-29T04:09:33.336Z,13.90
2019-05-29T04:10:39.779Z,13.90
2019-05-29T04:11:44.917Z,13.90
2019-05-29T04:12:49.777Z,13.90
2019-05-29T04:13:54.787Z,13.90
2019-05-29T04:14:59.679Z,13.90
2019-05-29T04:16:04.570Z,13.90
2019-05-29T04:17:10.650Z,13.90
2019-05-29T04:18:19.669Z,13.90
2019-05-29T04:19:27.631Z,13.90
2019-05-29T04:20:36.078Z,13.90
2019-05-29T04:21:43.245Z,13.90
2019-05-29T04:22:50.641Z,13.90
2019-05-29T04:23:57.970Z,13.90
2019-05-29T04:25:05.330Z,13.90
2019-05-29T04:26:12.769Z,13.90
2019-05-29T04:27:20.212Z,14.00
2019-05-29T04:28:25.472Z,13.90
2019-05-29T04:29:30.190Z,13.90
2019-05-29T04:30:36.498Z,13.90
2019-05-29T04:31:41.561Z,13.90
2019-05-29T04:32:46.438Z,13.90
2019-05-29T04:33:51.215Z,13.90
2019-05-29T04:34:56.081Z,14.00
2019-05-29T04:36:01.052Z,13.90
2019-05-29T04:37:07.455Z,14.00
2019-05-29T04:38:12.318Z,14.00
2019-05-29T04:39:17.274Z,14.00
2019-05-29T04:40:21.952Z,14.00
2019-05-29T04:41:28.798Z,14.00
2019-05-29T04:42:34.030Z,14.00
2019-05-29T04:43:40.017Z,14.00
2019-05-29T04:44:44.904Z,14.00
2019-05-29T04:45:49.771Z,14.00
2019-05-29T04:47:09.414Z,14.00
2019-05-29T04:48:01.069Z,14.00
2019-05-29T04:49:05.751Z,14.00
2019-05-29T04:50:10.786Z,14.00
2019-05-29T04:51:15.445Z,14.00
2019-05-29T04:52:20.395Z,14.00
2019-05-29T04:53:25.243Z,14.00
2019-05-29T04:54:31.070Z,14.00
2019-05-29T04:55:37.003Z,14.00
2019-05-29T04:56:42.133Z,14.00
2019-05-29T04:57:50.523Z,14.00
2019-05-29T04:58:53.557Z,14.00
2019-05-29T04:59:58.416Z,14.00
2019-05-29T05:01:03.467Z,14.00
2019-05-29T05:02:08.370Z,14.00
2019-05-29T05:03:13.754Z,14.10
2019-05-29T05:04:18.460Z,14.10
2019-05-29T05:05:23.352Z,14.10
2019-05-29T05:06:29.045Z,14.10
2019-05-29T05:07:33.995Z,14.10
2019-05-29T05:08:39.654Z,14.10
2019-05-29T05:09:44.930Z,14.20
2019-05-29T05:10:49.755Z,14.20
2019-05-29T05:11:54.897Z,14.20
2019-05-29T05:12:59.678Z,14.20
2019-05-29T05:14:06.086Z,14.20
2019-05-29T05:15:11.208Z,14.20
2019-05-29T05:16:16.064Z,14.20
2019-05-29T05:17:26.117Z,14.20
2019-05-29T05:18:27.458Z,14.20
2019-05-29T05:19:32.283Z,14.30
2019-05-29T05:20:38.283Z,14.30
2019-05-29T05:21:43.246Z,14.30
2019-05-29T05:22:48.287Z,14.30
2019-05-29T05:23:53.062Z,14.30
2019-05-29T05:24:57.987Z,14.30
2019-05-29T05:26:02.768Z,14.30
2019-05-29T05:27:07.625Z,14.30
2019-05-29T05:28:12.324Z,14.30
2019-05-29T05:29:17.439Z,14.30
2019-05-29T05:30:22.377Z,14.30
2019-05-29T05:31:27.459Z,14.30
2019-05-29T05:32:32.650Z,14.30
2019-05-29T05:33:38.662Z,14.30
2019-05-29T05:34:43.663Z,14.30
2019-05-29T05:35:49.571Z,14.40
2019-05-29T05:36:54.267Z,14.30
2019-05-29T05:37:59.122Z,14.40
2019-05-29T05:39:05.336Z,14.40
2019-05-29T05:40:10.509Z,14.40
2019-05-29T05:41:15.192Z,14.40
2019-05-29T05:42:20.244Z,14.40
2019-05-29T05:43:25.294Z,14.40
2019-05-29T05:44:30.758Z,14.40
2019-05-29T05:45:37.024Z,14.50
2019-05-29T05:46:42.002Z,14.50
2019-05-29T05:47:56.970Z,14.50
2019-05-29T05:48:54.065Z,14.60
2019-05-29T05:49:58.897Z,14.60
2019-05-29T05:51:03.829Z,14.60
2019-05-29T05:52:08.583Z,14.60
2019-05-29T05:53:13.733Z,14.60
2019-05-29T05:54:18.766Z,14.70
2019-05-29T05:55:23.632Z,14.70
2019-05-29T05:56:28.372Z,14.70
2019-05-29T05:57:33.557Z,14.70
2019-05-29T05:58:39.836Z,14.70
2019-05-29T05:59:45.339Z,14.70
2019-05-29T06:00:50.186Z,14.80
2019-05-29T06:01:55.055Z,14.80
2019-05-29T06:02:59.958Z,14.80
2019-05-29T06:04:05.349Z,14.80
2019-05-29T06:05:11.170Z,14.90
2019-05-29T06:06:16.093Z,14.90
2019-05-29T06:07:20.795Z,14.90
2019-05-29T06:08:25.664Z,14.90
2019-05-29T06:09:30.343Z,14.90
2019-05-29T06:10:36.133Z,14.90
2019-05-29T06:11:40.907Z,15.00
2019-05-29T06:12:45.767Z,15.00
2019-05-29T06:13:50.470Z,15.00
2019-05-29T06:14:55.313Z,15.00
2019-05-29T06:16:00.027Z,15.00
2019-05-29T06:17:05.014Z,15.10
2019-05-29T06:18:20.582Z,15.00
2019-05-29T06:19:16.412Z,15.10
2019-05-29T06:20:21.233Z,15.10
2019-05-29T06:21:26.089Z,15.10
2019-05-29T06:22:30.783Z,15.10
2019-05-29T06:23:36.905Z,15.10
2019-05-29T06:24:43.139Z,15.10
2019-05-29T06:25:48.390Z,15.10
2019-05-29T06:26:53.254Z,15.10
2019-05-29T06:27:58.107Z,15.20
2019-05-29T06:29:02.830Z,15.20
2019-05-29T06:30:09.301Z,15.20
2019-05-29T06:31:14.049Z,15.20
2019-05-29T06:32:18.931Z,15.30
2019-05-29T06:33:23.579Z,15.30
2019-05-29T06:34:28.463Z,15.30
2019-05-29T06:35:34.135Z,15.30
2019-05-29T06:36:39.740Z,15.30
2019-05-29T06:37:44.498Z,15.40
2019-05-29T06:38:49.350Z,15.40
2019-05-29T06:39:54.072Z,15.40
2019-05-29T06:40:59.014Z,15.40
2019-05-29T06:42:03.673Z,15.40
2019-05-29T06:43:12.093Z,15.40
2019-05-29T06:44:16.875Z,15.50
2019-05-29T06:45:24.967Z,15.50
2019-05-29T06:46:29.780Z,15.50
2019-05-29T06:47:36.263Z,15.50
2019-05-29T06:48:53.624Z,15.50
2019-05-29T06:49:47.938Z,15.60
2019-05-29T06:50:56.392Z,15.60
2019-05-29T06:51:59.431Z,15.60
2019-05-29T06:53:04.194Z,15.70
2019-05-29T06:54:09.071Z,15.70
2019-05-29T06:55:13.903Z,15.70
2019-05-29T06:56:19.010Z,15.80
2019-05-29T06:57:25.961Z,15.80
2019-05-29T06:58:30.449Z,15.80
2019-05-29T06:59:36.090Z,15.90
2019-05-29T07:00:41.194Z,15.90
2019-05-29T07:01:47.598Z,15.90
2019-05-29T07:02:52.602Z,16.00
2019-05-29T07:04:11.381Z,16.00
2019-05-29T07:05:05.832Z,16.10
2019-05-29T07:06:10.548Z,16.10
2019-05-29T07:07:15.451Z,16.10
2019-05-29T07:08:35.236Z,16.20
2019-05-29T07:09:26.686Z,16.20
2019-05-29T07:10:31.377Z,16.30
2019-05-29T07:11:37.097Z,16.30
2019-05-29T07:12:42.428Z,16.30
2019-05-29T07:13:50.103Z,16.40
2019-05-29T07:14:53.750Z,16.40
2019-05-29T07:15:58.607Z,16.40
2019-05-29T07:17:03.263Z,16.50
2019-05-29T07:18:08.112Z,16.50
2019-05-29T07:19:45.368Z,16.50
2019-05-29T07:20:19.422Z,16.50
2019-05-29T07:21:24.112Z,16.60
2019-05-29T07:22:28.940Z,16.60
2019-05-29T07:23:33.604Z,16.60
2019-05-29T07:24:38.787Z,16.60
2019-05-29T07:25:43.591Z,16.70
2019-05-29T07:26:49.103Z,16.70
2019-05-29T07:27:53.773Z,16.70
2019-05-29T07:29:07.935Z,16.80
2019-05-29T07:30:06.342Z,16.80
2019-05-29T07:31:11.231Z,16.80
2019-05-29T07:32:15.893Z,16.80
2019-05-29T07:33:20.749Z,16.90
2019-05-29T07:34:25.412Z,16.90
2019-05-29T07:35:30.382Z,16.90
2019-05-29T07:36:35.052Z,16.90
2019-05-29T07:37:39.897Z,16.90
2019-05-29T07:38:54.825Z,16.90
2019-05-29T07:39:51.145Z,16.90
2019-05-29T07:40:55.817Z,17.00
2019-05-29T07:42:00.785Z,17.00
2019-05-29T07:43:05.536Z,17.00
2019-05-29T07:44:10.386Z,17.10
2019-05-29T07:45:16.644Z,17.20
2019-05-29T07:46:21.545Z,17.20
2019-05-29T07:47:26.460Z,17.20
2019-05-29T07:48:31.355Z,17.30
2019-05-29T07:49:39.911Z,17.30
2019-05-29T07:50:42.632Z,17.40
2019-05-29T07:51:48.645Z,17.40
2019-05-29T07:52:53.920Z,17.40
2019-05-29T07:53:58.724Z,17.50
2019-05-29T07:55:04.849Z,17.50
2019-05-29T07:56:22.174Z,17.50
2019-05-29T07:57:16.077Z,17.60
2019-05-29T07:58:20.782Z,17.60
2019-05-29T07:59:28.600Z,17.60
2019-05-29T08:00:35.905Z,17.60
2019-05-29T08:01:38.714Z,17.60
2019-05-29T08:02:43.725Z,17.60
2019-05-29T08:03:49.660Z,17.60
2019-05-29T08:04:54.744Z,17.60
2019-05-29T08:05:59.776Z,17.60
2019-05-29T08:07:04.840Z,17.60
2019-05-29T08:08:09.725Z,17.60
2019-05-29T08:09:14.534Z,17.70
2019-05-29T08:10:20.036Z,17.70
2019-05-29T08:11:24.818Z,17.70
2019-05-29T08:12:29.853Z,17.70
2019-05-29T08:13:34.608Z,17.70
2019-05-29T08:14:39.687Z,17.70
2019-05-29T08:15:58.446Z,17.70
2019-05-29T08:16:51.182Z,17.70
2019-05-29T08:17:56.112Z,17.80
2019-05-29T08:19:01.458Z,17.80
2019-05-29T08:20:08.040Z,17.80
2019-05-29T08:21:13.001Z,17.80
2019-05-29T08:22:33.205Z,17.80
2019-05-29T08:23:24.427Z,17.90
2019-05-29T08:24:29.124Z,17.90
2019-05-29T08:25:34.180Z,17.90
2019-05-29T08:26:40.659Z,17.90
2019-05-29T08:27:46.616Z,17.90
2019-05-29T08:28:51.676Z,18.00
2019-05-29T08:29:56.567Z,18.00
2019-05-29T08:31:01.320Z,18.00
2019-05-29T08:32:06.246Z,18.10
2019-05-29T08:33:10.912Z,18.10
2019-05-29T08:34:15.792Z,18.10
2019-05-29T08:35:20.673Z,18.10
2019-05-29T08:36:25.733Z,18.10
2019-05-29T08:37:30.403Z,18.10
2019-05-29T08:38:35.262Z,18.10
2019-05-29T08:39:41.101Z,18.20
2019-05-29T08:40:47.325Z,18.20
2019-05-29T08:42:18.232Z,18.20
2019-05-29T08:42:59.172Z,18.20
2019-05-29T08:44:04.098Z,18.20
2019-05-29T08:45:09.588Z,18.20
2019-05-29T08:46:14.275Z,18.30
2019-05-29T08:47:19.122Z,18.30
2019-05-29T08:48:23.821Z,18.30
2019-05-29T08:49:28.785Z,18.30
2019-05-29T08:50:33.619Z,18.30
2019-05-29T08:51:38.496Z,18.30
2019-05-29T08:52:43.924Z,18.30
2019-05-29T08:53:51.866Z,18.40
2019-05-29T08:54:55.411Z,18.30
2019-05-29T08:56:00.307Z,18.40
2019-05-29T08:57:05.642Z,18.40
2019-05-29T08:58:10.607Z,18.40
2019-05-29T08:59:15.517Z,18.40
2019-05-29T09:00:21.207Z,18.40
2019-05-29T09:01:26.111Z,18.50
2019-05-29T09:02:30.989Z,18.50
2019-05-29T09:03:35.658Z,18.50
2019-05-29T09:04:40.524Z,18.50
2019-05-29T09:05:46.568Z,18.50
2019-05-29T09:06:53.101Z,18.60
2019-05-29T09:07:58.173Z,18.60
2019-05-29T09:09:03.033Z,18.60
2019-05-29T09:10:08.673Z,18.60
2019-05-29T09:11:13.544Z,18.60
2019-05-29T09:12:18.207Z,18.60
2019-05-29T09:13:23.148Z,18.60
2019-05-29T09:14:30.590Z,18.60
2019-05-29T09:15:35.526Z,18.70
2019-05-29T09:16:40.362Z,18.60
2019-05-29T09:17:45.232Z,18.70
2019-05-29T09:18:49.912Z,18.70
2019-05-29T09:19:54.793Z,18.70
2019-05-29T09:21:03.233Z,18.80
2019-05-29T09:22:06.042Z,18.80
2019-05-29T09:23:10.724Z,18.80
2019-05-29T09:24:16.355Z,18.80
2019-05-29T09:25:23.161Z,18.80
2019-05-29T09:26:28.354Z,18.90
2019-05-29T09:27:33.015Z,18.90
2019-05-29T09:28:37.969Z,18.90
2019-05-29T09:29:42.660Z,19.00
2019-05-29T09:30:48.199Z,19.10
2019-05-29T09:31:53.080Z,19.10
2019-05-29T09:32:57.937Z,19.10
2019-05-29T09:34:02.620Z,19.20
2019-05-29T09:35:08.059Z,19.20
2019-05-29T09:36:13.957Z,19.20
2019-05-29T09:37:20.423Z,19.20
2019-05-29T09:38:25.672Z,19.20
2019-05-29T09:39:30.506Z,19.20
2019-05-29T09:40:35.596Z,19.20
2019-05-29T09:41:40.447Z,19.20
2019-05-29T09:42:45.142Z,19.30
2019-05-29T09:43:59.399Z,19.30
2019-05-29T09:44:56.403Z,19.30
2019-05-29T09:46:02.289Z,19.30
2019-05-29T09:47:08.082Z,19.30
2019-05-29T09:48:13.011Z,19.30
2019-05-29T09:49:18.389Z,19.40
2019-05-29T09:50:25.482Z,19.40
2019-05-29T09:51:30.232Z,19.40
2019-05-29T09:52:35.110Z,19.50
2019-05-29T09:53:39.931Z,19.50
2019-05-29T09:54:44.794Z,19.50
2019-05-29T09:55:49.538Z,19.50
2019-05-29T09:56:56.178Z,19.50
2019-05-29T09:58:00.886Z,19.50
2019-05-29T09:59:05.805Z,19.50
2019-05-29T10:00:11.255Z,19.60
2019-05-29T10:01:23.544Z,19.60
2019-05-29T10:02:22.500Z,19.60
2019-05-29T10:03:27.378Z,19.60
2019-05-29T10:04:32.138Z,19.60
2019-05-29T10:05:37.212Z,19.60
2019-05-29T10:06:42.015Z,19.60
2019-05-29T10:07:47.151Z,19.60
2019-05-29T10:08:54.115Z,19.50
2019-05-29T10:10:00.529Z,19.50
2019-05-29T10:11:10.456Z,19.50
2019-05-29T10:12:12.196Z,19.50
2019-05-29T10:13:16.931Z,19.40
2019-05-29T10:14:21.774Z,19.40
2019-05-29T10:15:26.515Z,19.30
2019-05-29T10:16:31.425Z,19.40
2019-05-29T10:17:36.349Z,19.30
2019-05-29T10:18:41.563Z,19.30
2019-05-29T10:19:46.438Z,19.30
2019-05-29T10:20:51.352Z,19.30
2019-05-29T10:21:56.845Z,19.30
2019-05-29T10:23:03.116Z,19.30
2019-05-29T10:24:08.055Z,19.30
2019-05-29T10:25:13.831Z,19.30
2019-05-29T10:26:18.623Z,19.30
2019-05-29T10:27:23.560Z,19.30
2019-05-29T10:28:48.390Z,19.30
2019-05-29T10:29:34.878Z,19.30
2019-05-29T10:30:39.548Z,19.30
2019-05-29T10:31:45.827Z,19.30
2019-05-29T10:32:52.699Z,19.30
2019-05-29T10:33:58.026Z,19.30
2019-05-29T10:35:02.711Z,19.30
2019-05-29T10:36:07.588Z,19.30
2019-05-29T10:37:12.249Z,19.40
2019-05-29T10:38:17.167Z,19.50
2019-05-29T10:39:21.959Z,19.50
2019-05-29T10:40:26.857Z,19.60
2019-05-29T10:41:31.535Z,19.70
2019-05-29T10:42:36.465Z,19.80
2019-05-29T10:43:41.244Z,19.90
2019-05-29T10:44:46.911Z,19.90
2019-05-29T10:45:52.113Z,20.00
2019-05-29T10:46:57.198Z,20.10
2019-05-29T10:48:02.071Z,20.10
2019-05-29T10:49:07.108Z,20.20
2019-05-29T10:50:12.786Z,20.30
2019-05-29T10:51:17.767Z,20.30
2019-05-29T10:52:22.563Z,20.40
2019-05-29T10:53:27.484Z,20.50
2019-05-29T10:54:32.153Z,20.60
2019-05-29T10:55:37.066Z,20.60
2019-05-29T10:56:42.221Z,20.70
2019-05-29T10:57:48.826Z,20.80
2019-05-29T10:58:59.325Z,20.90
2019-05-29T11:00:00.312Z,21.10
2019-05-29T11:01:05.001Z,21.20
2019-05-29T11:02:09.992Z,21.30
2019-05-29T11:03:14.661Z,21.40
2019-05-29T11:04:19.588Z,21.60
2019-05-29T11:05:24.297Z,21.70
2019-05-29T11:06:29.290Z,21.80
2019-05-29T11:07:33.954Z,22.00
2019-05-29T11:08:38.826Z,22.10
2019-05-29T11:09:44.992Z,22.20
2019-05-29T11:10:50.266Z,22.30
2019-05-29T11:11:55.290Z,22.40
2019-05-29T11:13:01.511Z,22.50
2019-05-29T11:14:06.214Z,22.60
2019-05-29T11:15:21.553Z,22.70
2019-05-29T11:16:17.881Z,22.80
2019-05-29T11:17:22.875Z,22.80
2019-05-29T11:18:27.658Z,23.00
2019-05-29T11:19:32.667Z,23.00
2019-05-29T11:20:37.414Z,23.10
2019-05-29T11:21:42.467Z,23.20
2019-05-29T11:22:47.556Z,23.30
2019-05-29T11:23:53.865Z,23.30
2019-05-29T11:25:18.856Z,23.40
2019-05-29T11:26:08.661Z,23.50
2019-05-29T11:27:13.556Z,23.50
2019-05-29T11:28:18.514Z,23.60
2019-05-29T11:29:23.305Z,23.70
2019-05-29T11:30:28.204Z,23.70
2019-05-29T11:31:32.884Z,23.80
2019-05-29T11:32:37.800Z,23.80
2019-05-29T11:33:42.464Z,23.90
2019-05-29T11:34:47.328Z,23.90
2019-05-29T11:36:00.837Z,23.90
2019-05-29T11:36:58.773Z,24.10
2019-05-29T11:38:03.459Z,24.10
2019-05-29T11:39:09.366Z,24.20
2019-05-29T11:40:14.603Z,24.30
2019-05-29T11:41:26.441Z,24.30
2019-05-29T11:42:27.947Z,24.40
2019-05-29T11:43:32.742Z,24.40
2019-05-29T11:44:37.481Z,24.50
2019-05-29T11:45:42.387Z,24.50
2019-05-29T11:46:47.152Z,24.60
2019-05-29T11:47:53.678Z,24.60
2019-05-29T11:48:59.366Z,24.60
2019-05-29T11:50:18.813Z,24.70
2019-05-29T11:51:13.913Z,24.70
2019-05-29T11:52:24.678Z,24.80
2019-05-29T11:53:25.375Z,24.80
2019-05-29T11:54:30.392Z,24.90
2019-05-29T11:55:35.071Z,25.00
2019-05-29T11:56:39.963Z,25.00
2019-05-29T11:57:44.639Z,25.10
2019-05-29T11:58:50.725Z,25.20
2019-05-29T11:59:56.041Z,25.20
2019-05-29T12:01:02.498Z,25.20
2019-05-29T12:02:07.278Z,25.30
2019-05-29T12:03:12.496Z,25.30
2019-05-29T12:04:25.441Z,25.40
2019-05-29T12:05:24.766Z,25.40
2019-05-29T12:06:29.649Z,25.50
2019-05-29T12:07:34.630Z,25.50
2019-05-29T12:08:39.521Z,25.60
2019-05-29T12:09:44.681Z,25.60
2019-05-29T12:10:49.683Z,25.60
2019-05-29T12:11:55.954Z,25.60
2019-05-29T12:13:01.701Z,25.60
2019-05-29T12:14:06.812Z,25.60
2019-05-29T12:15:15.769Z,25.60
2019-05-29T12:16:18.384Z,25.50
2019-05-29T12:17:23.135Z,25.50
2019-05-29T12:18:28.105Z,25.40
2019-05-29T12:19:32.849Z,25.30
2019-05-29T12:20:37.704Z,25.20
2019-05-29T12:21:42.937Z,25.10
2019-05-29T12:23:12.769Z,25.00
2019-05-29T12:23:54.418Z,24.90
2019-05-29T12:25:00.581Z,24.80
2019-05-29T12:26:20.039Z,24.70
2019-05-29T12:27:12.198Z,24.60
2019-05-29T12:28:16.946Z,24.50
2019-05-29T12:29:21.987Z,24.30
2019-05-29T12:30:27.088Z,24.20
2019-05-29T12:31:32.013Z,24.10
2019-05-29T12:32:36.757Z,23.90
2019-05-29T12:33:41.696Z,23.80
2019-05-29T12:34:53.649Z,23.60
2019-05-29T12:35:53.321Z,23.50
2019-05-29T12:36:57.988Z,23.30
2019-05-29T12:38:03.557Z,23.10
2019-05-29T12:39:08.733Z,23.00
2019-05-29T12:40:13.745Z,22.80
2019-05-29T12:41:18.620Z,22.70
2019-05-29T12:42:23.498Z,22.50
2019-05-29T12:43:28.397Z,22.40
2019-05-29T12:44:33.506Z,22.20
2019-05-29T12:45:38.196Z,22.10
2019-05-29T12:46:43.081Z,21.90
2019-05-29T12:47:47.772Z,21.80
2019-05-29T12:48:53.425Z,21.60
2019-05-29T12:49:58.134Z,21.60
2019-05-29T12:51:04.106Z,21.40
2019-05-29T12:52:10.025Z,21.30
2019-05-29T12:53:29.669Z,21.20
2019-05-29T12:54:21.619Z,21.10
2019-05-29T12:55:26.564Z,21.00
2019-05-29T12:56:31.231Z,20.80
2019-05-29T12:57:36.100Z,20.80
2019-05-29T12:58:40.777Z,20.70
2019-05-29T12:59:45.878Z,20.50
2019-05-29T13:00:51.087Z,20.40
2019-05-29T13:01:56.220Z,20.40
2019-05-29T13:03:02.886Z,20.30
2019-05-29T13:04:07.624Z,20.20
2019-05-29T13:05:19.781Z,20.10
2019-05-29T13:06:19.670Z,20.00
2019-05-29T13:07:24.403Z,19.90
2019-05-29T13:08:29.294Z,19.90
2019-05-29T13:09:34.090Z,19.80
2019-05-29T13:10:38.964Z,19.80
2019-05-29T13:11:43.785Z,19.70
2019-05-29T13:12:48.701Z,19.70
2019-05-29T13:13:54.340Z,19.60
2019-05-29T13:15:00.647Z,19.60
2019-05-29T13:16:05.662Z,19.60
2019-05-29T13:17:10.842Z,19.50
2019-05-29T13:18:15.567Z,19.50
2019-05-29T13:19:20.431Z,19.50
2019-05-29T13:20:25.302Z,19.50
2019-05-29T13:21:30.346Z,19.50
2019-05-29T13:22:35.080Z,19.40
2019-05-29T13:23:45.165Z,19.40
2019-05-29T13:24:46.358Z,19.40
2019-05-29T13:25:51.335Z,19.40
2019-05-29T13:26:57.417Z,19.40
2019-05-29T13:28:03.113Z,19.40
2019-05-29T13:29:37.424Z,19.40
2019-05-29T13:30:42.333Z,19.40
2019-05-29T13:31:47.063Z,19.40
2019-05-29T13:32:52.195Z,19.40
2019-05-29T13:33:57.799Z,19.40
2019-05-29T13:35:04.237Z,19.40
2019-05-29T13:36:09.196Z,19.40
2019-05-29T13:37:14.097Z,19.40
2019-05-29T13:38:19.100Z,19.40
2019-05-29T13:39:24.143Z,19.40
2019-05-29T13:40:28.874Z,19.50
2019-05-29T13:41:33.775Z,19.50
2019-05-29T13:42:38.903Z,19.50
2019-05-29T13:43:43.835Z,19.60
2019-05-29T13:44:48.873Z,19.60
2019-05-29T13:45:53.848Z,19.60
2019-05-29T13:46:59.890Z,19.70
2019-05-29T13:48:05.537Z,19.70
2019-05-29T13:49:10.420Z,19.80
2019-05-29T13:50:16.153Z,19.80
2019-05-29T13:51:21.222Z,19.80
2019-05-29T13:52:26.152Z,19.90
2019-05-29T13:53:30.907Z,19.90
2019-05-29T13:54:35.921Z,20.00
2019-05-29T13:55:40.779Z,20.00
2019-05-29T13:56:45.739Z,20.10
2019-05-29T13:57:50.750Z,20.10
2019-05-29T13:58:55.745Z,20.10
2019-05-29T14:00:00.417Z,20.20
2019-05-29T14:01:06.376Z,20.20